Time;durP1;ratioP1;P1;durP2;ratioP2;P2;SDS_P1;SDS_P2;PMS_P1;PMS_P2;Temp;Humidity;BMP_temperature;BMP_pressure;BME280_temperature;BME280_humidity;BME280_pressure;Samples;Min_cycle;Max_cycle;Signal;HPM_P1;HPM_P2
2022/11/01 00:00:55;;;;;;;33.23;27.60;;;;;21.60;99966.00;;;;2079162;28;20736;-55
2022/11/01 00:01:56;;;;;;;30.70;26.63;;;;;21.60;99972.00;;;;2077700;28;20610;-59
2022/11/01 00:02:56;;;;;;;31.17;27.33;;;;;21.50;99974.00;;;;2079508;28;20551;-58
2022/11/01 00:03:56;;;;;;;30.83;26.60;;;;;21.50;99975.00;;;;2079698;28;20204;-57
2022/11/01 00:04:57;;;;;;;29.37;25.70;;;;;21.50;99978.00;;;;2079608;28;20217;-56
2022/11/01 00:05:57;;;;;;;29.50;26.07;;;;;21.50;99976.00;;;;2079665;28;20612;-56
2022/11/01 00:06:57;;;;;;;27.77;24.27;;;;;21.50;99965.00;;;;2079782;28;20694;-56
2022/11/01 00:07:58;;;;;;;29.63;23.67;;;;;21.50;99975.00;;;;2079187;28;20248;-56
2022/11/01 00:08:58;;;;;;;31.17;26.70;;;;;21.50;99969.00;;;;2079620;28;20233;-55
2022/11/01 00:09:58;;;;;;;30.77;26.10;;;;;21.50;99973.00;;;;2079720;28;20271;-56
2022/11/01 00:11:06;;;;;;;28.10;24.50;;;;;21.50;99967.00;;;;2079613;28;20356;-55
2022/11/01 00:12:07;;;;;;;27.42;24.00;;;;;21.50;99959.00;;;;2078147;28;20312;-55
2022/11/01 00:13:07;;;;;;;28.00;23.93;;;;;21.50;99884.00;;;;2078783;28;20917;-55
2022/11/01 00:14:10;;;;;;;26.47;23.67;;;;;21.50;99971.00;;;;2079521;28;20291;-55
2022/11/01 00:15:11;;;;;;;27.38;23.65;;;;;21.50;99962.00;;;;2078758;28;20222;-55
2022/11/01 00:16:12;;;;;;;23.70;20.80;;;;;21.50;99975.00;;;;2079024;28;20717;-55
2022/11/01 00:17:12;;;;;;;24.87;22.13;;;;;21.50;99961.00;;;;2079089;28;20656;-55
2022/11/01 00:18:12;;;;;;;25.80;23.00;;;;;21.50;99986.00;;;;2078993;28;20461;-55
2022/11/01 00:19:13;;;;;;;27.27;21.83;;;;;21.50;99973.00;;;;2079187;28;20213;-55
2022/11/01 00:20:13;;;;;;;27.83;22.53;;;;;21.50;99980.00;;;;2075593;28;20277;-55
2022/11/01 00:21:14;;;;;;;29.10;22.40;;;;;21.50;99971.00;;;;2087089;28;20209;-55
2022/11/01 00:22:14;;;;;;;23.90;20.73;;;;;21.50;99987.00;;;;2077809;28;20213;-55
2022/11/01 00:23:14;;;;;;;26.90;21.30;;;;;21.50;99986.00;;;;2077589;28;20220;-55
2022/11/01 00:24:15;;;;;;;24.00;20.30;;;;;21.50;99982.00;;;;2079289;28;20210;-55
2022/11/01 00:25:15;;;;;;;24.33;20.17;;;;;21.50;99978.00;;;;2079392;28;20308;-55
2022/11/01 00:26:17;;;;;;;22.40;18.77;;;;;21.50;99983.00;;;;2079532;28;20690;-56
2022/11/01 00:27:19;;;;;;;24.65;20.20;;;;;21.50;99977.00;;;;2079611;28;20214;-56
2022/11/01 00:28:19;;;;;;;23.40;19.50;;;;;21.50;99982.00;;;;2079253;28;20225;-56
2022/11/01 00:29:20;;;;;;;25.50;20.37;;;;;21.50;99975.00;;;;2079505;28;20571;-56
2022/11/01 00:30:20;;;;;;;22.23;19.53;;;;;21.50;99972.00;;;;2072506;28;20210;-56
2022/11/01 00:31:20;;;;;;;26.90;20.77;;;;;21.50;99978.00;;;;2071296;28;20225;-56
2022/11/01 00:32:21;;;;;;;21.63;19.40;;;;;21.50;99980.00;;;;2069972;28;20237;-56
2022/11/01 00:33:21;;;;;;;24.93;20.17;;;;;21.50;99979.00;;;;2071459;28;20732;-54
2022/11/01 00:34:22;;;;;;;23.30;19.27;;;;;21.50;99978.00;;;;2070447;28;20726;-55
2022/11/01 00:35:22;;;;;;;22.63;18.50;;;;;21.50;99976.00;;;;2070434;28;20246;-55
2022/11/01 00:36:22;;;;;;;19.80;17.53;;;;;21.50;99982.00;;;;2071347;28;20226;-55
2022/11/01 00:37:23;;;;;;;21.67;18.30;;;;;21.50;99969.00;;;;2071277;28;20256;-55
2022/11/01 00:38:23;;;;;;;21.80;18.50;;;;;21.50;99969.00;;;;2071307;28;20225;-55
2022/11/01 00:39:23;;;;;;;20.47;17.80;;;;;21.50;99975.00;;;;2071233;28;20290;-55
2022/11/01 00:40:24;;;;;;;24.30;18.50;;;;;21.50;99970.00;;;;2070924;28;20217;-55
2022/11/01 00:41:24;;;;;;;21.60;17.80;;;;;21.50;99963.00;;;;2070994;28;20272;-55
2022/11/01 00:42:24;;;;;;;20.70;18.43;;;;;21.50;99968.00;;;;2070528;28;20210;-55
2022/11/01 00:43:25;;;;;;;21.00;17.00;;;;;21.50;99962.00;;;;2071354;28;20210;-55
2022/11/01 00:44:25;;;;;;;20.20;17.00;;;;;21.50;99966.00;;;;2071123;28;20214;-55
2022/11/01 00:45:25;;;;;;;21.83;16.50;;;;;21.50;99968.00;;;;2071143;28;20218;-54
2022/11/01 00:46:26;;;;;;;18.83;16.87;;;;;21.50;99972.00;;;;2071040;28;20242;-55
2022/11/01 00:47:26;;;;;;;18.50;16.57;;;;;21.40;99963.00;;;;2071164;28;20245;-55
2022/11/01 00:48:26;;;;;;;19.20;17.17;;;;;21.50;99966.00;;;;2070016;28;20211;-55
2022/11/01 00:49:27;;;;;;;20.90;16.80;;;;;21.50;99958.00;;;;2071021;28;20214;-55
2022/11/01 00:50:28;;;;;;;19.63;17.57;;;;;21.50;99969.00;;;;2070688;28;20214;-55
2022/11/01 00:51:28;;;;;;;18.10;16.20;;;;;21.50;99964.00;;;;2070939;28;20245;-55
2022/11/01 00:52:28;;;;;;;20.43;16.33;;;;;21.50;99953.00;;;;2069925;28;20449;-55
2022/11/01 00:53:29;;;;;;;19.87;16.30;;;;;21.50;99949.00;;;;2071209;28;20711;-54
2022/11/01 00:54:29;;;;;;;18.80;15.53;;;;;21.40;99940.00;;;;2070936;28;20218;-55
2022/11/01 00:55:29;;;;;;;19.90;16.70;;;;;21.40;99938.00;;;;2070977;28;20233;-55
2022/11/01 00:56:30;;;;;;;18.43;15.10;;;;;21.40;99940.00;;;;2070858;28;20565;-55
2022/11/01 00:57:30;;;;;;;19.20;16.43;;;;;21.50;99929.00;;;;2071039;28;20224;-55
2022/11/01 00:58:30;;;;;;;17.57;15.70;;;;;21.50;99938.00;;;;2071097;28;20274;-55
2022/11/01 00:59:31;;;;;;;16.57;14.57;;;;;21.40;99937.00;;;;2071064;28;20222;-55
2022/11/01 01:00:31;;;;;;;18.27;16.17;;;;;21.40;99930.00;;;;2077874;28;20637;-55
2022/11/01 01:01:31;;;;;;;19.00;16.83;;;;;21.40;99940.00;;;;2079139;28;20221;-55
2022/11/01 01:02:32;;;;;;;17.00;15.20;;;;;21.50;99943.00;;;;2078253;28;20237;-55
2022/11/01 01:03:33;;;;;;;19.30;15.87;;;;;21.40;99927.00;;;;2078700;28;20210;-55
2022/11/01 01:04:33;;;;;;;16.58;14.88;;;;;21.50;99935.00;;;;2078844;28;20214;-55
2022/11/01 01:05:34;;;;;;;16.43;14.63;;;;;21.40;99934.00;;;;2079128;28;20306;-55
2022/11/01 01:06:34;;;;;;;18.83;15.60;;;;;21.40;99931.00;;;;2079087;28;20651;-55
2022/11/01 01:07:34;;;;;;;20.27;15.47;;;;;21.50;99925.00;;;;2079163;28;20742;-55
2022/11/01 01:08:35;;;;;;;19.47;15.87;;;;;21.50;99922.00;;;;2078828;28;20217;-55
2022/11/01 01:09:35;;;;;;;18.10;14.47;;;;;21.40;99931.00;;;;2074652;28;20599;-60
2022/11/01 01:10:36;;;;;;;17.27;13.80;;;;;21.40;99930.00;;;;2071001;28;20210;-57
2022/11/01 01:11:36;;;;;;;16.57;14.77;;;;;21.40;99926.00;;;;2070784;28;20252;-56
2022/11/01 01:12:36;;;;;;;16.57;14.20;;;;;21.40;99936.00;;;;2069060;28;20226;-56
2022/11/01 01:13:36;;;;;;;17.40;15.50;;;;;21.40;99931.00;;;;2070359;28;20210;-55
2022/11/01 01:14:37;;;;;;;18.03;13.63;;;;;21.40;99933.00;;;;2070610;28;20225;-56
2022/11/01 01:15:38;;;;;;;18.53;14.40;;;;;21.40;99925.00;;;;2070799;28;20226;-55
2022/11/01 01:16:38;;;;;;;16.97;14.27;;;;;21.40;99931.00;;;;2071092;28;20276;-55
2022/11/01 01:17:38;;;;;;;16.83;14.00;;;;;21.50;99924.00;;;;2070986;28;20542;-55
2022/11/01 01:18:39;;;;;;;14.67;13.17;;;;;21.40;99928.00;;;;2070820;28;20222;-55
2022/11/01 01:19:39;;;;;;;15.13;12.97;;;;;21.40;99920.00;;;;2070967;28;20955;-55
2022/11/01 01:20:39;;;;;;;17.07;14.23;;;;;21.40;99926.00;;;;2070972;28;20565;-55
2022/11/01 01:21:40;;;;;;;14.60;13.20;;;;;21.40;99928.00;;;;2070650;28;20686;-55
2022/11/01 01:22:41;;;;;;;16.60;13.60;;;;;21.40;99929.00;;;;2069688;28;20562;-55
2022/11/01 01:23:42;;;;;;;14.70;13.20;;;;;21.40;99936.00;;;;2075855;28;20221;-55
2022/11/01 01:24:46;;;;;;;15.87;12.90;;;;;21.40;99925.00;;;;2079121;28;20626;-57
2022/11/01 01:25:46;;;;;;;14.60;13.05;;;;;21.40;99913.00;;;;2079028;28;20453;-55
2022/11/01 01:26:47;;;;;;;17.73;14.53;;;;;21.40;99916.00;;;;2079170;28;20217;-55
2022/11/01 01:27:47;;;;;;;15.07;13.20;;;;;21.50;99917.00;;;;2079409;28;20216;-55
2022/11/01 01:28:47;;;;;;;16.17;13.83;;;;;21.40;99917.00;;;;2078874;28;20249;-55
2022/11/01 01:29:48;;;;;;;14.37;12.80;;;;;21.40;99920.00;;;;2079236;28;20581;-55
2022/11/01 01:30:48;;;;;;;16.53;12.77;;;;;21.40;99921.00;;;;2078776;28;20721;-55
2022/11/01 01:31:49;;;;;;;14.17;12.50;;;;;21.10;99938.00;;;;2078186;28;20212;-56
2022/11/01 01:32:50;;;;;;;13.38;12.02;;;;;21.40;99915.00;;;;2074852;28;20353;-55
2022/11/01 01:33:50;;;;;;;13.03;11.63;;;;;21.40;99920.00;;;;2070995;28;20729;-55
2022/11/01 01:34:50;;;;;;;13.53;12.13;;;;;21.40;99923.00;;;;2071131;28;20202;-55
2022/11/01 01:35:51;;;;;;;14.20;12.53;;;;;21.40;99927.00;;;;2071170;28;20213;-55
2022/11/01 01:36:51;;;;;;;15.60;13.10;;;;;21.40;99906.00;;;;2070974;28;20228;-55
2022/11/01 01:37:51;;;;;;;12.30;10.67;;;;;21.40;99918.00;;;;2071310;28;20210;-55
2022/11/01 01:38:52;;;;;;;13.33;11.77;;;;;21.40;99916.00;;;;2071216;28;20213;-55
2022/11/01 01:39:52;;;;;;;12.97;11.40;;;;;21.40;99906.00;;;;2071391;28;20234;-55
2022/11/01 01:40:52;;;;;;;15.67;11.70;;;;;21.40;99901.00;;;;2071093;28;20210;-56
2022/11/01 01:41:55;;;;;;;11.93;10.60;;;;;21.40;99905.00;;;;2070057;28;20264;-55
2022/11/01 01:42:56;;;;;;;14.10;12.05;;;;;21.40;99901.00;;;;2070885;28;20678;-55
2022/11/01 01:43:56;;;;;;;14.13;12.67;;;;;21.40;99900.00;;;;2071077;28;20225;-55
2022/11/01 01:44:56;;;;;;;13.30;11.47;;;;;21.40;99896.00;;;;2071021;28;20237;-54
2022/11/01 01:45:56;;;;;;;13.67;11.27;;;;;21.40;99899.00;;;;2071351;28;20582;-54
2022/11/01 01:46:57;;;;;;;12.73;11.43;;;;;21.40;99890.00;;;;2070259;28;20210;-55
2022/11/01 01:48:02;;;;;;;13.77;10.83;;;;;21.40;99903.00;;;;2074280;28;20217;-55
2022/11/01 01:49:02;;;;;;;13.45;11.25;;;;;21.40;99918.00;;;;2078607;28;20256;-55
2022/11/01 01:50:05;;;;;;;13.97;11.73;;;;;21.40;99912.00;;;;2079533;28;20685;-56
2022/11/01 01:51:16;;;;;;;13.38;11.05;;;;;21.40;99901.00;;;;2079008;28;20237;-56
2022/11/01 01:52:17;;;;;;;12.20;10.85;;;;;21.40;99905.00;;;;2077483;28;20295;-56
2022/11/01 01:53:20;;;;;;;11.87;10.43;;;;;21.40;99897.00;;;;2077913;28;20240;-56
2022/11/01 01:54:20;;;;;;;14.07;12.07;;;;;21.40;99914.00;;;;2077818;28;20214;-55
2022/11/01 01:55:26;;;;;;;11.70;10.50;;;;;21.40;99905.00;;;;2070615;28;20218;-54
2022/11/01 01:56:31;;;;;;;13.63;11.15;;;;;21.40;99904.00;;;;2070884;28;20764;-54
2022/11/01 01:57:32;;;;;;;11.45;9.48;;;;;21.40;99909.00;;;;2069819;28;20229;-54
2022/11/01 01:58:54;;;;;;;11.67;10.43;;;;;21.40;99932.00;;;;2072711;28;20221;-55
2022/11/01 01:59:54;;;;;;;12.07;10.73;;;;;21.40;99892.00;;;;2078758;28;20295;-54
2022/11/01 02:00:54;;;;;;;11.40;9.70;;;;;21.40;99908.00;;;;2077654;28;20300;-54
2022/11/01 02:01:55;;;;;;;13.40;10.10;;;;;21.40;99905.00;;;;2073594;28;20202;-54
2022/11/01 02:02:55;;;;;;;11.53;10.33;;;;;21.40;99912.00;;;;2077932;28;20201;-54
2022/11/01 02:03:55;;;;;;;11.53;10.33;;;;;21.40;99890.00;;;;2063948;28;20217;-54
2022/11/01 02:04:57;;;;;;;12.03;10.13;;;;;21.40;99904.00;;;;2085453;28;20244;-55
2022/11/01 02:06:11;;;;;;;12.52;10.07;;;;;21.40;99907.00;;;;2077729;28;20217;-54
2022/11/01 02:07:11;;;;;;;11.07;9.90;;;;;21.40;99905.00;;;;2056904;28;20223;-54
2022/11/01 02:08:11;;;;;;;12.50;9.30;;;;;21.40;99889.00;;;;2069768;28;20222;-54
2022/11/01 02:09:12;;;;;;;10.17;9.07;;;;;21.40;99883.00;;;;2078050;28;20228;-54
2022/11/01 02:10:13;;;;;;;10.70;9.60;;;;;21.40;99910.00;;;;2069845;28;20301;-54
2022/11/01 02:11:14;;;;;;;12.05;9.25;;;;;21.40;99902.00;;;;2074723;28;20305;-54
2022/11/01 02:12:15;;;;;;;10.80;9.30;;;;;21.40;99879.00;;;;2068641;28;20221;-56
2022/11/01 02:13:15;;;;;;;10.60;9.50;;;;;21.40;99900.00;;;;2069999;28;20257;-54
2022/11/01 02:14:16;;;;;;;10.20;9.10;;;;;21.40;99895.00;;;;2069632;28;20642;-55
2022/11/01 02:15:16;;;;;;;12.60;9.93;;;;;20.90;99901.00;;;;2072417;28;20570;-54
2022/11/01 02:16:46;;;;;;;10.23;9.17;;;;;21.40;99891.00;;;;2078152;28;20213;-54
2022/11/01 02:17:58;;;;;;;10.85;9.02;;;;;21.40;99892.00;;;;2069775;28;20218;-54
2022/11/01 02:19:10;;;;;;;11.98;8.90;;;;;21.40;99889.00;;;;2075952;28;20213;-55
2022/11/01 02:20:22;;;;;;;10.85;9.20;;;;;21.30;99895.00;;;;2084901;28;20213;-55
2022/11/01 02:21:34;;;;;;;11.23;7.70;;;;;21.40;99898.00;;;;2077457;28;20230;-55
2022/11/01 02:22:50;;;;;;;9.13;8.15;;;;;21.40;99890.00;;;;2078680;28;20221;-55
2022/11/01 02:24:01;;;;;;;9.77;8.52;;;;;21.30;99878.00;;;;2079923;28;20208;-54
2022/11/01 02:25:11;;;;;;;12.10;9.30;;;;;21.30;99874.00;;;;2079041;28;20213;-54
2022/11/01 02:26:49;;;;;;;9.10;8.20;;;;;21.40;99891.00;;;;2078154;28;20871;-54
2022/11/01 02:28:21;;;;;;;10.10;8.55;;;;;21.40;99889.00;;;;2070947;28;20228;-54
2022/11/01 02:29:32;;;;;;;9.95;8.40;;;;;21.30;99888.00;;;;2074132;28;20217;-53
2022/11/01 02:30:40;;;;;;;10.00;8.52;;;;;21.30;99891.00;;;;2071148;28;20218;-55
2022/11/01 02:31:57;;;;;;;9.15;8.27;;;;;21.30;99893.00;;;;2078948;28;20233;-55
2022/11/01 02:33:28;;;;;;;9.07;8.18;;;;;21.30;99895.00;;;;2077616;28;20769;-55
2022/11/01 02:34:44;;;;;;;9.70;8.70;;;;;21.40;99897.00;;;;2082031;28;20216;-56
2022/11/01 02:36:14;;;;;;;9.05;8.15;;;;;21.30;99900.00;;;;2078175;28;20775;-54
2022/11/01 02:37:20;;;;;;;8.95;7.88;;;;;21.40;99886.00;;;;2071793;28;20221;-55
2022/11/01 02:38:42;;;;;;;11.10;8.52;;;;;21.30;99891.00;;;;2058951;28;20219;-55
2022/11/01 02:39:47;;;;;;;10.43;7.82;;;;;21.40;99892.00;;;;2073043;28;20697;-55
2022/11/01 02:41:02;;;;;;;9.45;7.72;;;;;21.40;99872.00;;;;2058678;28;20961;-55
2022/11/01 02:42:19;;;;;;;8.98;7.70;;;;;21.30;99898.00;;;;2056734;28;20226;-55
2022/11/01 02:43:28;;;;;;;9.48;8.20;;;;;21.30;99890.00;;;;2071186;28;21127;-55
2022/11/01 02:44:31;;;;;;;8.68;7.45;;;;;21.30;99891.00;;;;2063423;28;20335;-54
2022/11/01 02:45:34;;;;;;;9.98;7.45;;;;;21.30;99893.00;;;;2070912;28;20291;-53
2022/11/01 02:48:00;;;;;;;8.13;7.22;;;;;21.30;99866.00;;;;2073843;28;20210;-54
2022/11/01 02:49:00;;;;;;;8.02;7.25;;;;;21.30;99884.00;;;;2063359;28;20231;-55
2022/11/01 02:50:04;;;;;;;8.33;6.93;;;;;21.30;99888.00;;;;2069246;28;20245;-55
2022/11/01 02:51:04;;;;;;;8.32;6.88;;;;;21.30;99885.00;;;;2077174;28;20272;-56
2022/11/01 02:52:10;;;;;;;8.47;7.40;;;;;21.30;99891.00;;;;2076780;28;20213;-55
2022/11/01 02:53:10;;;;;;;7.50;6.80;;;;;21.30;99896.00;;;;2063043;28;25205;-55
2022/11/01 02:54:37;;;;;;;9.80;6.90;;;;;21.30;99892.00;;;;2077354;28;20273;-55
2022/11/01 02:55:38;;;;;;;8.52;6.78;;;;;21.30;99888.00;;;;2073752;28;20224;-56
2022/11/01 02:56:38;;;;;;;9.77;7.80;;;;;21.30;99882.00;;;;2076883;28;20217;-55
2022/11/01 02:57:39;;;;;;;8.50;7.30;;;;;21.30;99889.00;;;;2077228;28;20240;-55
2022/11/01 02:58:39;;;;;;;8.32;7.20;;;;;21.30;99897.00;;;;2077509;28;20205;-55
2022/11/01 02:59:44;;;;;;;7.03;6.33;;;;;21.30;99887.00;;;;2084928;28;20220;-55
2022/11/01 03:00:45;;;;;;;7.82;6.50;;;;;21.30;99886.00;;;;2077796;28;20213;-55
2022/11/01 03:02:20;;;;;;;7.63;6.73;;;;;21.30;99936.00;;;;2077505;28;20213;-55
2022/11/01 03:03:26;;;;;;;9.18;7.15;;;;;21.30;99880.00;;;;2053059;28;20223;-54
2022/11/01 03:04:26;;;;;;;7.53;6.45;;;;;21.30;99875.00;;;;2072208;28;20213;-56
2022/11/01 03:05:30;;;;;;;9.47;6.50;;;;;21.30;99891.00;;;;2078264;28;20225;-55
2022/11/01 03:06:34;;;;;;;8.02;6.80;;;;;21.30;99860.00;;;;2077947;28;20214;-55
2022/11/01 03:07:35;;;;;;;8.85;6.30;;;;;21.30;99888.00;;;;2078082;28;20240;-57
2022/11/01 03:09:00;;;;;;;7.97;6.83;;;;;21.30;99889.00;;;;2069462;28;20210;-55
2022/11/01 03:10:01;;;;;;;8.15;6.68;;;;;21.30;99885.00;;;;2067925;28;20221;-54
2022/11/01 03:11:15;;;;;;;7.47;6.50;;;;;21.30;99889.00;;;;2069269;28;20226;-55
2022/11/01 03:12:19;;;;;;;6.72;6.00;;;;;21.30;99888.00;;;;2070709;28;20209;-56
2022/11/01 03:13:59;;;;;;;6.80;6.00;;;;;21.30;99889.00;;;;2077260;28;20220;-55
2022/11/01 03:15:19;;;;;;;7.30;6.10;;;;;21.30;99892.00;;;;2074264;28;20259;-57
2022/11/01 03:16:41;;;;;;;8.05;6.43;;;;;21.30;99897.00;;;;2086034;28;20501;-54
2022/11/01 03:17:50;;;;;;;7.30;6.35;;;;;21.30;99905.00;;;;2077923;28;20579;-56
2022/11/01 03:19:10;;;;;;;6.97;6.28;;;;;21.30;99893.00;;;;2081401;28;20251;-54
2022/11/01 03:20:16;;;;;;;6.80;5.95;;;;;21.30;99887.00;;;;2072586;28;20216;-55
2022/11/01 03:21:20;;;;;;;6.60;5.80;;;;;21.30;99895.00;;;;2076292;28;20222;-54
2022/11/01 03:22:37;;;;;;;7.53;6.05;;;;;21.30;99896.00;;;;2077207;28;20222;-55
2022/11/01 03:23:39;;;;;;;7.28;5.55;;;;;21.30;99900.00;;;;2077906;28;20209;-54
2022/11/01 03:24:53;;;;;;;7.65;5.88;;;;;21.30;99890.00;;;;2072251;28;20574;-55
2022/11/01 03:25:54;;;;;;;7.35;5.60;;;;;21.30;99899.00;;;;2077983;28;20216;-55
2022/11/01 03:27:01;;;;;;;5.43;4.93;;;;;21.30;99896.00;;;;2077907;28;20711;-55
2022/11/01 03:28:05;;;;;;;6.07;5.43;;;;;21.30;99898.00;;;;2069919;28;20492;-53
2022/11/01 03:29:06;;;;;;;6.90;6.20;;;;;21.30;99901.00;;;;2069810;28;20241;-56
2022/11/01 03:30:08;;;;;;;6.80;5.70;;;;;21.30;99909.00;;;;2070009;28;20324;-54
2022/11/01 03:31:11;;;;;;;6.65;5.93;;;;;21.30;99904.00;;;;2060949;28;20227;-54
2022/11/01 03:32:11;;;;;;;5.97;5.38;;;;;21.30;99905.00;;;;2061403;28;20223;-55
2022/11/01 03:33:12;;;;;;;7.40;5.87;;;;;21.30;99899.00;;;;2069118;28;20273;-54
2022/11/01 03:34:14;;;;;;;6.65;5.78;;;;;21.30;99900.00;;;;2061644;28;20250;-54
2022/11/01 03:35:19;;;;;;;6.85;5.68;;;;;21.30;99905.00;;;;2062032;28;20219;-54
2022/11/01 03:36:20;;;;;;;8.40;6.25;;;;;21.30;99912.00;;;;2063707;28;20226;-55
2022/11/01 03:37:21;;;;;;;5.75;5.15;;;;;21.30;99905.00;;;;2063259;28;20217;-54
2022/11/01 03:38:24;;;;;;;6.87;5.90;;;;;21.30;99913.00;;;;2055317;28;20239;-54
2022/11/01 03:39:27;;;;;;;6.07;5.45;;;;;21.30;99915.00;;;;2063355;28;20222;-55
2022/11/01 03:40:27;;;;;;;7.55;5.70;;;;;21.30;99894.00;;;;2070643;28;20677;-61
2022/11/01 03:41:28;;;;;;;6.40;5.60;;;;;21.20;99917.00;;;;2071290;28;20240;-55
2022/11/01 03:42:28;;;;;;;6.47;5.43;;;;;21.20;99893.00;;;;2062247;28;20231;-55
2022/11/01 03:43:29;;;;;;;6.73;5.43;;;;;21.30;99914.00;;;;2054891;28;20244;-54
2022/11/01 03:44:32;;;;;;;7.40;5.27;;;;;21.30;99918.00;;;;2054669;28;20220;-53
2022/11/01 03:45:33;;;;;;;6.15;5.13;;;;;21.30;99918.00;;;;2054087;28;20537;-55
2022/11/01 03:46:33;;;;;;;8.27;5.63;;;;;21.30;99913.00;;;;2055243;28;20219;-54
2022/11/01 03:47:33;;;;;;;5.10;4.60;;;;;21.30;99914.00;;;;2070312;28;20216;-54
2022/11/01 03:48:38;;;;;;;5.73;5.13;;;;;21.30;99923.00;;;;2070880;28;20214;-54
2022/11/01 03:49:38;;;;;;;6.53;5.70;;;;;21.30;99921.00;;;;2071598;28;20642;-55
2022/11/01 03:50:39;;;;;;;6.03;4.63;;;;;21.30;99914.00;;;;2070666;28;20296;-55
2022/11/01 03:51:39;;;;;;;7.07;5.30;;;;;21.30;99910.00;;;;2071005;28;20276;-55
2022/11/01 03:52:40;;;;;;;6.03;5.47;;;;;21.30;99921.00;;;;2074771;28;20213;-55
2022/11/01 03:53:40;;;;;;;6.70;4.73;;;;;21.30;99925.00;;;;2071704;28;20218;-54
2022/11/01 03:54:40;;;;;;;5.43;4.90;;;;;21.30;99928.00;;;;2071902;28;20217;-55
2022/11/01 03:55:41;;;;;;;7.60;5.80;;;;;21.30;99933.00;;;;2071684;28;20202;-55
2022/11/01 03:56:41;;;;;;;6.23;5.00;;;;;21.30;99923.00;;;;2071684;28;20218;-55
2022/11/01 03:57:42;;;;;;;6.33;5.70;;;;;21.30;99924.00;;;;2071422;28;20465;-55
2022/11/01 03:58:44;;;;;;;5.50;4.90;;;;;21.30;99931.00;;;;2071211;28;20256;-54
2022/11/01 03:59:44;;;;;;;6.47;4.93;;;;;21.20;99939.00;;;;2070926;28;20461;-54
2022/11/01 04:00:44;;;;;;;6.03;5.17;;;;;21.20;99926.00;;;;2071481;28;20240;-54
2022/11/01 04:01:45;;;;;;;5.70;5.10;;;;;21.20;99936.00;;;;2070518;28;20214;-55
2022/11/01 04:02:46;;;;;;;5.97;4.97;;;;;21.30;99934.00;;;;2070256;28;20214;-55
2022/11/01 04:03:46;;;;;;;5.80;4.53;;;;;21.20;99936.00;;;;2071657;28;20671;-55
2022/11/01 04:04:46;;;;;;;8.77;5.10;;;;;21.30;99929.00;;;;2071786;28;20465;-55
2022/11/01 04:05:47;;;;;;;5.07;4.57;;;;;21.30;99924.00;;;;2071612;28;20222;-54
2022/11/01 04:06:47;;;;;;;5.50;4.70;;;;;21.30;99931.00;;;;2071677;28;20953;-55
2022/11/01 04:07:47;;;;;;;5.20;4.70;;;;;21.30;99928.00;;;;2071251;28;21132;-55
2022/11/01 04:08:48;;;;;;;5.37;4.87;;;;;21.30;99944.00;;;;2071621;28;20245;-56
2022/11/01 04:09:48;;;;;;;5.00;4.57;;;;;21.30;99953.00;;;;2071696;28;20214;-55
2022/11/01 04:10:48;;;;;;;6.50;4.40;;;;;21.30;99940.00;;;;2069723;28;20207;-61
2022/11/01 04:11:49;;;;;;;5.13;4.63;;;;;21.30;99947.00;;;;2070662;28;20218;-54
2022/11/01 04:12:50;;;;;;;5.40;4.90;;;;;21.30;99936.00;;;;2071249;28;20325;-54
2022/11/01 04:13:50;;;;;;;6.23;4.53;;;;;21.20;99950.00;;;;2070247;28;20214;-55
2022/11/01 04:21:32;;;;;;;5.05;4.35;;;;;21.20;99952.00;;;;2070940;28;20694;-54
2022/11/01 04:22:32;;;;;;;6.33;4.57;;;;;21.20;99948.00;;;;2070348;28;20309;-54
2022/11/01 04:23:33;;;;;;;6.10;5.10;;;;;21.20;99947.00;;;;2070703;28;20291;-54
2022/11/01 04:24:33;;;;;;;5.83;4.40;;;;;21.20;99955.00;;;;2078943;28;20244;-55
2022/11/01 04:25:33;;;;;;;6.53;4.70;;;;;21.20;99948.00;;;;2071057;28;20224;-53
2022/11/01 04:26:34;;;;;;;5.67;4.30;;;;;21.20;99939.00;;;;2071479;28;20217;-54
2022/11/01 04:27:34;;;;;;;4.87;4.27;;;;;21.20;99948.00;;;;2071506;28;20214;-55
2022/11/01 04:28:34;;;;;;;6.17;4.40;;;;;21.20;99955.00;;;;2071370;28;20304;-54
2022/11/01 04:29:35;;;;;;;6.33;4.23;;;;;21.30;99956.00;;;;2070650;28;21743;-55
2022/11/01 04:30:35;;;;;;;5.30;4.27;;;;;21.30;99946.00;;;;2070519;28;21753;-61
2022/11/01 04:31:35;;;;;;;4.50;4.03;;;;;21.20;99953.00;;;;2070097;28;20214;-58
2022/11/01 04:32:36;;;;;;;6.67;4.27;;;;;21.20;99973.00;;;;2069520;28;20206;-57
2022/11/01 04:33:36;;;;;;;4.93;4.47;;;;;21.20;99948.00;;;;2071040;28;20670;-56
2022/11/01 04:34:42;;;;;;;5.70;4.10;;;;;21.20;99950.00;;;;2071178;28;20689;-55
2022/11/01 04:35:43;;;;;;;5.57;4.30;;;;;21.20;99966.00;;;;2071440;28;20769;-56
2022/11/01 04:36:43;;;;;;;4.77;4.03;;;;;21.20;99968.00;;;;2071529;28;20221;-54
2022/11/01 04:37:43;;;;;;;5.03;4.47;;;;;21.20;99971.00;;;;2071128;28;20234;-55
2022/11/01 04:38:44;;;;;;;6.07;4.73;;;;;21.20;99968.00;;;;2071417;28;20237;-56
2022/11/01 04:39:44;;;;;;;5.97;4.80;;;;;21.20;99973.00;;;;2071425;28;20276;-56
2022/11/01 04:40:44;;;;;;;4.77;4.13;;;;;21.20;99967.00;;;;2071091;28;20250;-52
2022/11/01 04:41:45;;;;;;;4.63;3.90;;;;;21.20;99969.00;;;;2070538;28;20222;-55
2022/11/01 04:42:45;;;;;;;4.97;4.37;;;;;21.20;99968.00;;;;2070094;28;20210;-55
2022/11/01 04:43:46;;;;;;;5.70;4.47;;;;;21.20;99966.00;;;;2070630;28;20225;-56
2022/11/01 04:44:46;;;;;;;4.27;3.60;;;;;21.20;99976.00;;;;2071507;28;20218;-56
2022/11/01 04:45:53;;;;;;;4.90;4.40;;;;;21.20;99962.00;;;;2078155;28;20711;-55
2022/11/01 04:46:53;;;;;;;5.45;4.20;;;;;21.20;99965.00;;;;2078103;28;20295;-55
2022/11/01 04:48:11;;;;;;;4.00;3.50;;;;;21.20;99978.00;;;;2079609;28;20224;-53
2022/11/01 04:49:11;;;;;;;4.85;4.30;;;;;21.20;99975.00;;;;2079026;28;20647;-56
2022/11/01 04:50:12;;;;;;;4.70;4.30;;;;;21.20;99982.00;;;;2078742;28;20240;-56
2022/11/01 04:51:12;;;;;;;4.23;3.83;;;;;21.20;99972.00;;;;2079209;28;20234;-55
2022/11/01 04:52:12;;;;;;;4.33;3.93;;;;;21.20;99972.00;;;;2078428;28;21130;-53
2022/11/01 04:53:13;;;;;;;7.77;4.23;;;;;21.30;99965.00;;;;2078246;28;20221;-55
2022/11/01 04:54:13;;;;;;;3.90;3.33;;;;;21.20;99968.00;;;;2079569;28;20217;-53
2022/11/01 04:55:13;;;;;;;8.17;4.23;;;;;21.20;99988.00;;;;2079425;28;20252;-54
2022/11/01 04:56:14;;;;;;;4.63;3.37;;;;;21.20;99975.00;;;;2074286;28;20218;-55
2022/11/01 04:57:23;;;;;;;6.23;4.23;;;;;21.20;99984.00;;;;2070867;28;20226;-54
2022/11/01 04:58:24;;;;;;;4.20;3.33;;;;;21.20;99981.00;;;;2071347;28;20694;-54
2022/11/01 04:59:24;;;;;;;3.83;3.53;;;;;21.20;99976.00;;;;2071172;28;20218;-54
2022/11/01 05:00:25;;;;;;;4.07;3.37;;;;;21.20;99971.00;;;;2070283;28;20225;-55
2022/11/01 05:01:25;;;;;;;7.37;3.60;;;;;21.20;99981.00;;;;2070961;28;20210;-55
2022/11/01 05:02:26;;;;;;;4.53;3.77;;;;;21.20;99982.00;;;;2070219;28;20210;-53
2022/11/01 05:03:26;;;;;;;4.77;4.20;;;;;21.20;99980.00;;;;2070659;28;20214;-55
2022/11/01 05:04:27;;;;;;;3.50;3.20;;;;;21.20;99983.00;;;;2071082;28;20202;-55
2022/11/01 05:05:27;;;;;;;4.30;3.42;;;;;21.20;99981.00;;;;2070613;28;20585;-55
2022/11/01 05:06:28;;;;;;;7.10;3.90;;;;;21.20;99980.00;;;;2062198;28;20309;-54
2022/11/01 05:07:29;;;;;;;5.03;3.73;;;;;21.20;99991.00;;;;2069910;28;20214;-55
2022/11/01 05:08:29;;;;;;;4.57;3.13;;;;;21.20;99996.00;;;;2070618;28;20460;-55
2022/11/01 05:09:29;;;;;;;3.40;3.10;;;;;21.20;99989.00;;;;2071106;28;20210;-55
2022/11/01 05:10:30;;;;;;;6.23;3.90;;;;;21.20;99992.00;;;;2070925;28;20210;-55
2022/11/01 05:11:30;;;;;;;6.80;3.87;;;;;21.20;99996.00;;;;2069733;28;20226;-54
2022/11/01 05:12:31;;;;;;;6.13;4.30;;;;;21.20;99993.00;;;;2070630;28;20775;-54
2022/11/01 05:13:31;;;;;;;4.20;3.80;;;;;21.20;99988.00;;;;2071304;28;20312;-55
2022/11/01 05:14:31;;;;;;;6.53;3.37;;;;;21.20;99994.00;;;;2071057;28;20226;-55
2022/11/01 05:15:32;;;;;;;4.60;3.60;;;;;21.20;99998.00;;;;2071353;28;20253;-54
2022/11/01 05:16:32;;;;;;;3.93;3.53;;;;;21.20;100027.00;;;;2070727;28;20218;-55
2022/11/01 05:17:32;;;;;;;4.47;3.73;;;;;21.20;99996.00;;;;2070762;28;20783;-53
2022/11/01 05:18:33;;;;;;;3.63;3.33;;;;;21.20;99996.00;;;;2071273;28;20583;-53
2022/11/01 05:19:33;;;;;;;3.90;3.30;;;;;21.20;99993.00;;;;2075593;28;20218;-53
2022/11/01 05:20:33;;;;;;;4.83;3.60;;;;;21.20;100007.00;;;;2079394;28;20213;-55